aviador You're here:

KRCE Decoded Metar

CLARENCE E in OK, USA
Report Time2017-05-26 12:55:00
UTC Time2017-05-26 13:08:10
Flight Rules vfr VFR
Wind270° at 03 kt
W.Decomp.*RWY 35: 0.2 kt HW 3 kt LCW
W.Rank270° ranks 35
Current wind is below 270° avg. (6.8)
Visibility9999 m
Phenomena:N/A
Clouds:N/A
Expected CloudBase > 2,400 ft AGL from Temp-Dew spread
CeilingNone
Temp22°C (ISA +10)
Dew Point16°C (69% RH)
QNH1005 hPa
Density Alt2,999 ft
Elevation1,354 ft
Report Wrong Elevation
Raw Report
KRCE 261255Z AUTO 27003KT 10SM CLR 22/16 A2967 RMK AO2=

Extra information for KRCE:More info

Metar Taf Metar & Taf Last 4 Metars F.Rules Stats Wind Profile Meteogram Temp Stats Airport Information Weather charts Add Link Nearby VenuesMetar ALERT Operation Metar Decoded Social comments

AIRNAV info for KRCE